Time;durP1;ratioP1;P1;durP2;ratioP2;P2;SDS_P1;SDS_P2;PMS_P1;PMS_P2;Temp;Humidity;BMP_temperature;BMP_pressure;BME280_temperature;BME280_humidity;BME280_pressure;Samples;Min_cycle;Max_cycle;Signal;HPM_P1;HPM_P2
2022/02/02 00:00:33;;;;;;;5.10;4.20;;;4.60;76.40;;;;;;5023187;28;20033;-82
2022/02/02 00:03:05;;;;;;;5.57;4.80;;;4.60;76.50;;;;;;5024212;28;20026;-81
2022/02/02 00:06:00;;;;;;;6.90;4.50;;;4.60;76.50;;;;;;5024928;28;20049;-81
2022/02/02 00:08:28;;;;;;;5.23;4.20;;;4.50;76.30;;;;;;5024659;28;20061;-81
2022/02/02 00:13:54;;;;;;;4.50;3.87;;;4.60;76.60;;;;;;5022720;28;20465;-81
2022/02/02 00:19:00;;;;;;;5.00;4.23;;;4.70;77.00;;;;;;5024065;28;20045;-81
2022/02/02 00:21:39;;;;;;;4.87;4.37;;;4.70;76.10;;;;;;5016256;28;20037;-81
2022/02/02 00:24:17;;;;;;;5.00;3.90;;;4.70;76.10;;;;;;5021586;28;20108;-81
2022/02/02 00:26:44;;;;;;;4.83;4.23;;;4.60;76.20;;;;;;5029187;28;20574;-81
2022/02/02 00:29:16;;;;;;;3.97;3.47;;;4.60;76.00;;;;;;5022962;28;20018;-81
2022/02/02 00:31:48;;;;;;;5.17;4.30;;;4.70;76.90;;;;;;5028066;28;20117;-81
2022/02/02 00:34:18;;;;;;;6.60;5.03;;;4.70;76.10;;;;;;5025387;28;20104;-82
2022/02/02 00:36:54;;;;;;;5.37;4.53;;;4.70;76.90;;;;;;5021700;28;20037;-81
2022/02/02 00:39:19;;;;;;;6.70;4.10;;;5.10;76.10;;;;;;5026745;28;20868;-81
2022/02/02 00:41:45;;;;;;;6.13;4.27;;;5.00;75.00;;;;;;5027040;28;20124;-82
2022/02/02 00:44:14;;;;;;;4.57;3.53;;;4.90;76.00;;;;;;5030269;28;20053;-81
2022/02/02 00:46:40;;;;;;;4.17;3.30;;;5.20;75.80;;;;;;5029787;28;20061;-81
2022/02/02 00:49:06;;;;;;;5.30;4.37;;;5.00;75.40;;;;;;5027507;28;20087;-81
2022/02/02 00:51:58;;;;;;;4.80;3.73;;;4.80;75.80;;;;;;5031227;28;20354;-81
2022/02/02 00:54:27;;;;;;;4.00;3.60;;;4.80;76.80;;;;;;5031648;28;20034;-82
2022/02/02 00:56:53;;;;;;;4.57;4.13;;;4.90;76.50;;;;;;5026463;28;20029;-81
2022/02/02 00:59:22;;;;;;;5.80;3.77;;;4.80;76.00;;;;;;5030045;28;20117;-81
2022/02/02 01:01:48;;;;;;;3.40;3.10;;;4.90;77.10;;;;;;5028533;28;20021;-80
2022/02/02 01:04:14;;;;;;;4.63;3.47;;;5.00;76.30;;;;;;5028079;28;20117;-81
2022/02/02 01:06:58;;;;;;;4.73;3.00;;;5.00;76.00;;;;;;5029933;28;20108;-81
2022/02/02 01:09:41;;;;;;;3.23;2.83;;;5.10;76.70;;;;;;5028670;28;20108;-81
2022/02/02 01:28:27;;;;;;;5.43;4.10;;;5.10;75.90;;;;;;5025240;28;20082;-81
2022/02/02 01:30:53;;;;;;;4.67;4.03;;;5.00;75.90;;;;;;5029431;28;20021;-81
2022/02/02 01:33:19;;;;;;;6.70;5.00;;;5.00;76.00;;;;;;5029696;28;20021;-82
2022/02/02 01:35:46;;;;;;;6.87;5.30;;;5.00;75.90;;;;;;5026137;28;20045;-81
2022/02/02 01:38:12;;;;;;;8.40;6.33;;;5.00;76.20;;;;;;5027344;28;20060;-82
2022/02/02 01:40:43;;;;;;;6.37;5.70;;;5.00;75.90;;;;;;5025981;28;20026;-81
2022/02/02 01:43:14;;;;;;;6.97;6.07;;;5.10;76.20;;;;;;5030940;28;20033;-81
2022/02/02 01:50:58;;;;;;;10.13;6.57;;;4.90;76.50;;;;;;5032449;28;20354;-81
2022/02/02 01:56:02;;;;;;;6.33;5.00;;;5.00;75.90;;;;;;5029714;28;20299;-82
2022/02/02 02:01:21;;;;;;;7.22;4.35;;;5.00;76.90;;;;;;5048568;28;20052;-82
2022/02/02 02:03:47;;;;;;;5.80;3.57;;;5.50;76.20;;;;;;5029589;28;20056;-81
2022/02/02 02:06:14;;;;;;;3.37;3.00;;;5.40;75.40;;;;;;5028887;28;20057;-82
2022/02/02 02:08:41;;;;;;;4.83;3.23;;;5.50;75.60;;;;;;5030382;28;20029;-81
2022/02/02 02:11:13;;;;;;;9.67;6.80;;;5.40;75.40;;;;;;5027195;28;20021;-81
2022/02/02 02:16:18;;;;;;;12.33;9.73;;;5.20;75.60;;;;;;5026596;28;20029;-81
2022/02/02 02:18:44;;;;;;;11.57;9.40;;;5.20;75.60;;;;;;5031266;28;20030;-81
2022/02/02 02:21:13;;;;;;;10.57;9.10;;;5.10;75.70;;;;;;5029443;28;20079;-81
2022/02/02 02:23:39;;;;;;;12.47;9.37;;;5.10;75.70;;;;;;5029751;28;20032;-82
2022/02/02 02:26:06;;;;;;;11.97;9.07;;;5.00;75.80;;;;;;5026765;28;20114;-81
2022/02/02 02:28:54;;;;;;;12.10;9.97;;;5.10;75.90;;;;;;5028928;28;20446;-81
2022/02/02 02:31:45;;;;;;;25.70;12.33;;;5.00;76.10;;;;;;5028150;28;20460;-83
2022/02/02 02:39:38;;;;;;;10.27;7.67;;;5.00;76.50;;;;;;5028820;28;20037;-81
2022/02/02 02:55:59;;;;;;;8.23;5.53;;;5.00;76.50;;;;;;5035005;28;20083;-81
2022/02/02 03:01:23;;;;;;;5.03;3.80;;;5.30;76.70;;;;;;5031581;28;20515;-82
2022/02/02 03:30:56;;;;;;;6.17;4.30;;;5.30;77.00;;;;;;5028939;28;20400;-82
2022/02/02 03:54:57;;;;;;;10.07;7.30;;;5.30;75.80;;;;;;5027285;28;20014;-81
2022/02/02 03:57:34;;;;;;;9.87;6.63;;;5.20;75.80;;;;;;5029960;28;20026;-81
2022/02/02 04:08:09;;;;;;;4.07;2.13;;;6.10;76.00;;;;;;5033430;28;20076;-82
2022/02/02 04:10:35;;;;;;;2.53;2.10;;;6.20;76.00;;;;;;5033022;28;20029;-82
2022/02/02 04:13:19;;;;;;;2.80;2.10;;;6.40;73.80;;;;;;5031794;28;20025;-82
2022/02/02 04:17:00;;;;;;;2.03;1.20;;;6.20;73.90;;;;;;5027754;28;20045;-82
2022/02/02 04:51:47;;;;;;;6.40;3.70;;;5.60;76.00;;;;;;5033235;28;20029;-82
2022/02/02 05:04:48;;;;;;;6.57;3.30;;;5.70;76.30;;;;;;5029669;28;20226;-82
2022/02/02 05:07:41;;;;;;;7.30;4.03;;;5.70;76.30;;;;;;5032197;28;20103;-82
2022/02/02 05:53:20;;;;;;;6.63;3.67;;;5.80;76.50;;;;;;5031652;28;20890;-82
2022/02/02 05:55:46;;;;;;;5.30;3.13;;;5.70;75.80;;;;;;5030509;28;20099;-82
2022/02/02 05:58:12;;;;;;;3.43;2.23;;;5.70;75.90;;;;;;5029636;28;20034;-82
2022/02/02 06:00:40;;;;;;;6.17;3.73;;;5.70;76.00;;;;;;5030131;28;20040;-81
2022/02/02 06:03:15;;;;;;;3.80;2.50;;;5.60;76.20;;;;;;5028010;28;20033;-82
2022/02/02 06:05:42;;;;;;;7.07;3.77;;;5.70;76.30;;;;;;5028572;28;20519;-81
2022/02/02 06:08:13;;;;;;;7.63;5.03;;;5.70;76.90;;;;;;5029271;28;20033;-83
2022/02/02 06:10:41;;;;;;;11.10;6.60;;;5.80;75.20;;;;;;5029569;28;20029;-81
2022/02/02 06:13:07;;;;;;;10.53;6.70;;;5.60;75.70;;;;;;5029200;28;20025;-82
2022/02/02 06:15:35;;;;;;;8.77;5.57;;;5.60;76.30;;;;;;5019744;28;20041;-82
2022/02/02 06:18:02;;;;;;;8.43;5.20;;;5.70;76.10;;;;;;5029958;28;20040;-81
2022/02/02 06:20:28;;;;;;;6.93;4.50;;;5.70;76.00;;;;;;5033271;28;20057;-82
2022/02/02 06:23:01;;;;;;;6.93;4.23;;;5.70;75.90;;;;;;5031485;28;20060;-82
2022/02/02 06:25:32;;;;;;;;;;;5.70;76.00;;;;;;5032209;28;20069;-82
2022/02/02 06:28:02;;;;;;;8.20;4.63;;;5.70;76.00;;;;;;5029902;28;19913;-82
2022/02/02 06:30:29;;;;;;;11.63;5.70;;;5.60;75.60;;;;;;5036080;28;20049;-82
2022/02/02 06:33:15;;;;;;;8.10;4.63;;;5.50;76.10;;;;;;5033222;28;20021;-82
2022/02/02 06:35:41;;;;;;;7.37;3.67;;;5.30;76.10;;;;;;5023938;28;20030;-82
2022/02/02 06:38:06;;;;;;;6.53;3.13;;;5.30;77.00;;;;;;5031926;28;20040;-82
2022/02/02 06:40:33;;;;;;;6.63;3.43;;;5.20;76.70;;;;;;5026974;28;20113;-82
2022/02/02 06:43:00;;;;;;;8.93;5.00;;;5.30;77.10;;;;;;5020439;28;20038;-82
2022/02/02 06:45:26;;;;;;;15.03;7.30;;;5.30;76.70;;;;;;5033503;28;20090;-83
2022/02/02 06:47:52;;;;;;;8.77;5.40;;;5.20;76.40;;;;;;5028786;28;20060;-82
2022/02/02 06:50:25;;;;;;;6.00;3.60;;;5.30;77.50;;;;;;5027390;28;20014;-83
2022/02/02 06:56:15;;;;;;;6.32;4.00;;;5.30;76.50;;;;;;5041976;28;20041;-82
2022/02/02 07:02:26;;;;;;;6.57;2.80;;;5.60;76.70;;;;;;5034000;28;20105;-82
2022/02/02 07:08:00;;;;;;;8.70;3.50;;;5.50;76.70;;;;;;5026422;28;20042;-82
2022/02/02 07:16:53;;;;;;;7.53;3.27;;;5.70;76.00;;;;;;5027550;28;20045;-82
2022/02/02 07:22:10;;;;;;;15.17;2.80;;;6.00;75.60;;;;;;5030454;28;20120;-82
2022/02/02 07:32:25;;;;;;;8.43;2.20;;;6.50;74.00;;;;;;5030820;28;20049;-83
2022/02/02 07:37:57;;;;;;;7.83;1.73;;;6.40;74.00;;;;;;5023167;28;20045;-82
2022/02/02 07:40:25;;;;;;;11.03;2.57;;;6.60;74.10;;;;;;5024182;28;20029;-82
2022/02/02 07:42:53;;;;;;;11.97;3.20;;;6.60;72.50;;;;;;5021076;28;20165;-82
2022/02/02 07:45:21;;;;;;;12.63;3.20;;;6.60;72.80;;;;;;5035889;28;20431;-82
2022/02/02 07:47:54;;;;;;;11.40;3.93;;;6.70;72.70;;;;;;5022946;28;20041;-82
2022/02/02 07:50:22;;;;;;;10.07;2.27;;;6.70;72.40;;;;;;5018410;28;20034;-83
2022/02/02 07:52:50;;;;;;;15.80;3.63;;;6.60;72.10;;;;;;5021362;28;20392;-82
2022/02/02 07:55:18;;;;;;;12.93;3.23;;;6.50;72.50;;;;;;5022973;28;20021;-83
2022/02/02 07:57:48;;;;;;;7.97;2.70;;;6.50;72.70;;;;;;5017713;28;20515;-83
2022/02/02 08:00:20;;;;;;;11.00;3.83;;;6.40;73.00;;;;;;5023914;28;20026;-82
2022/02/02 08:05:14;;;;;;;11.20;3.67;;;6.30;73.80;;;;;;5030039;28;20499;-82
2022/02/02 08:07:51;;;;;;;13.20;5.73;;;6.40;73.90;;;;;;5018990;28;20026;-82
2022/02/02 08:10:21;;;;;;;11.57;3.30;;;6.60;73.30;;;;;;5027820;28;20018;-82
2022/02/02 08:12:54;;;;;;;8.47;2.43;;;6.80;72.60;;;;;;5027770;28;20142;-83
2022/02/02 08:15:22;;;;;;;8.07;2.23;;;7.00;71.80;;;;;;5016765;28;20030;-82
2022/02/02 08:17:50;;;;;;;10.67;2.17;;;7.10;70.90;;;;;;5024549;28;20029;-82
2022/02/02 08:20:16;;;;;;;8.57;3.33;;;7.00;71.30;;;;;;5023840;28;20156;-82
2022/02/02 08:22:42;;;;;;;8.37;1.90;;;6.80;71.10;;;;;;5020316;28;20068;-82
2022/02/02 08:25:17;;;;;;;9.27;2.40;;;6.90;72.10;;;;;;5029957;28;20101;-82
2022/02/02 08:27:45;;;;;;;14.33;2.67;;;7.00;71.90;;;;;;5026115;28;20026;-82
2022/02/02 08:30:15;;;;;;;6.37;1.60;;;7.00;70.20;;;;;;5020952;28;20389;-82
2022/02/02 08:32:50;;;;;;;8.70;2.20;;;7.00;70.80;;;;;;5022712;28;20583;-82
2022/02/02 08:35:20;;;;;;;5.87;1.30;;;7.30;69.90;;;;;;5028651;28;20025;-83
2022/02/02 08:37:50;;;;;;;9.17;1.83;;;7.20;68.30;;;;;;5026408;28;20133;-83
2022/02/02 08:40:31;;;;;;;10.83;3.10;;;7.20;68.20;;;;;;5028423;28;20404;-82
2022/02/02 08:43:02;;;;;;;7.60;2.30;;;7.10;68.30;;;;;;5029569;28;20095;-82
2022/02/02 08:45:32;;;;;;;12.00;2.40;;;7.00;69.20;;;;;;5020069;28;20045;-82
2022/02/02 08:48:02;;;;;;;13.60;3.40;;;6.90;69.80;;;;;;5023845;28;20049;-82
2022/02/02 08:50:48;;;;;;;15.80;5.50;;;6.90;70.10;;;;;;5013567;28;20519;-83
2022/02/02 09:00:55;;;;;;;5.70;2.30;;;6.90;70.70;;;;;;5019985;28;20388;-83
2022/02/02 09:06:05;;;;;;;10.13;3.00;;;6.90;70.60;;;;;;5032270;28;20040;-82
2022/02/02 09:08:33;;;;;;;10.37;2.90;;;6.90;70.70;;;;;;5029328;28;20030;-82
2022/02/02 09:24:26;;;;;;;6.20;2.00;;;7.10;70.80;;;;;;5020611;28;20030;-83
2022/02/02 09:34:53;;;;;;;6.00;2.00;;;7.10;70.80;;;;;;5026790;28;20041;-83
2022/02/02 09:37:19;;;;;;;9.07;2.27;;;7.00;70.70;;;;;;5019445;28;20037;-83
2022/02/02 09:39:53;;;;;;;11.60;2.40;;;7.00;70.90;;;;;;5023236;28;20026;-83
2022/02/02 09:42:21;;;;;;;8.17;1.77;;;6.90;70.80;;;;;;5022273;28;20029;-82
2022/02/02 09:44:51;;;;;;;8.80;2.70;;;6.90;71.50;;;;;;5021117;28;20381;-83
2022/02/02 09:50:11;;;;;;;10.57;3.15;;;6.80;71.80;;;;;;5013193;28;20022;-83
2022/02/02 09:52:41;;;;;;;8.87;1.60;;;6.80;72.00;;;;;;5027029;28;20507;-83
2022/02/02 09:55:18;;;;;;;7.10;1.87;;;6.80;72.20;;;;;;5033274;28;20377;-82
2022/02/02 10:03:03;;;;;;;8.70;2.70;;;7.40;71.90;;;;;;5035305;28;20013;-82
2022/02/02 10:05:47;;;;;;;6.07;1.60;;;7.50;70.10;;;;;;5034556;28;20033;-82
2022/02/02 10:10:59;;;;;;;7.47;2.13;;;7.30;70.40;;;;;;5035115;28;20026;-82
2022/02/02 10:16:02;;;;;;;11.53;3.17;;;7.20;70.50;;;;;;5035124;28;20037;-83
2022/02/02 10:18:36;;;;;;;8.83;2.27;;;7.20;70.40;;;;;;5033082;28;20409;-83
2022/02/02 10:21:03;;;;;;;8.00;1.70;;;7.20;70.50;;;;;;5034557;28;20124;-83
2022/02/02 10:23:32;;;;;;;9.30;1.73;;;7.20;70.60;;;;;;5033325;28;20653;-82
2022/02/02 10:26:13;;;;;;;5.83;1.20;;;7.20;70.80;;;;;;5034953;28;20504;-82
2022/02/02 10:28:39;;;;;;;7.07;1.47;;;7.20;70.50;;;;;;5033494;28;20383;-83
2022/02/02 10:31:07;;;;;;;7.03;1.80;;;7.20;70.30;;;;;;5034467;28;20380;-82
2022/02/02 10:33:35;;;;;;;18.53;3.40;;;7.20;70.30;;;;;;5039581;28;20028;-82
2022/02/02 10:36:14;;;;;;;12.57;2.23;;;7.20;70.70;;;;;;5038077;28;20029;-81
2022/02/02 10:38:49;;;;;;;14.43;2.90;;;7.20;71.40;;;;;;5034483;28;20040;-82
2022/02/02 10:41:29;;;;;;;11.00;4.00;;;7.20;71.10;;;;;;5025900;28;20117;-82
2022/02/02 10:44:03;;;;;;;9.57;4.27;;;7.00;71.10;;;;;;5027973;28;20449;-82
2022/02/02 10:49:17;;;;;;;14.70;3.07;;;7.20;70.40;;;;;;5032796;28;20026;-82
2022/02/02 10:51:58;;;;;;;14.07;2.93;;;7.20;70.20;;;;;;5031578;28;20082;-83
2022/02/02 11:00:11;;;;;;;11.60;3.03;;;7.30;69.80;;;;;;5016274;28;20021;-82
2022/02/02 11:08:08;;;;;;;9.13;1.93;;;7.10;70.80;;;;;;5032727;28;20056;-83
2022/02/02 11:10:33;;;;;;;12.33;2.13;;;7.10;70.90;;;;;;5031294;28;20021;-82
2022/02/02 11:13:01;;;;;;;8.43;2.60;;;7.10;71.10;;;;;;5029489;28;20132;-83
2022/02/02 11:15:36;;;;;;;10.53;2.67;;;7.10;71.20;;;;;;5027363;28;20021;-82
2022/02/02 11:18:21;;;;;;;10.43;2.60;;;7.00;71.30;;;;;;5017070;28;20018;-83
2022/02/02 11:20:47;;;;;;;13.40;2.60;;;7.00;71.60;;;;;;5021881;28;20017;-83
2022/02/02 11:23:13;;;;;;;6.93;1.97;;;7.00;71.60;;;;;;5020144;28;20032;-83
2022/02/02 11:25:50;;;;;;;7.33;2.73;;;7.20;71.50;;;;;;5019575;28;20017;-83
2022/02/02 11:28:23;;;;;;;9.83;3.03;;;7.10;71.00;;;;;;5028596;28;20022;-82
2022/02/02 11:30:50;;;;;;;7.33;2.20;;;7.10;71.40;;;;;;5023167;28;20136;-83
2022/02/02 11:33:15;;;;;;;6.40;2.17;;;7.00;71.10;;;;;;5025073;28;20021;-83
2022/02/02 11:35:46;;;;;;;5.83;2.50;;;7.10;72.00;;;;;;5029235;28;20397;-83
2022/02/02 11:38:26;;;;;;;5.10;1.10;;;7.30;71.10;;;;;;5026336;28;20034;-83
2022/02/02 11:41:10;;;;;;;10.20;1.90;;;7.40;71.60;;;;;;5012884;28;20584;-83
2022/02/02 11:46:51;;;;;;;3.93;0.87;;;7.40;70.20;;;;;;4988015;28;1202879;-82
2022/02/02 11:49:50;;;;;;;4.73;1.60;;;7.50;70.30;;;;;;5023860;28;20433;-83
2022/02/02 11:52:35;;;;;;;9.07;1.53;;;7.50;70.10;;;;;;5028050;28;20033;-80
2022/02/02 11:55:02;;;;;;;3.50;1.10;;;7.50;69.90;;;;;;5023763;28;20036;-82
2022/02/02 11:57:35;;;;;;;6.40;1.47;;;7.50;69.90;;;;;;5029534;28;20021;-83
2022/02/02 12:07:56;;;;;;;6.03;0.93;;;7.40;69.50;;;;;;5030559;28;20068;-83
2022/02/02 12:49:09;;;;;;;4.38;1.40;;;7.00;71.70;;;;;;5030002;28;20651;-82
2022/02/02 12:56:58;;;;;;;7.20;3.27;;;7.50;70.50;;;;;;5025070;28;20018;-83
2022/02/02 12:59:54;;;;;;;7.70;3.00;;;7.40;70.30;;;;;;5010027;28;20429;-82
2022/02/02 13:02:19;;;;;;;10.40;3.73;;;7.40;71.00;;;;;;5020803;28;20055;-83
2022/02/02 13:04:53;;;;;;;9.20;3.43;;;7.60;70.30;;;;;;5024868;28;20440;-82
2022/02/02 13:07:21;;;;;;;7.20;3.50;;;7.50;70.40;;;;;;5023340;28;20053;-83
2022/02/02 13:09:52;;;;;;;9.00;2.33;;;7.40;70.70;;;;;;5020835;28;20017;-82
2022/02/02 13:12:21;;;;;;;7.80;1.97;;;7.40;70.90;;;;;;5026802;28;20034;-83
2022/02/02 13:23:28;;;;;;;10.30;2.25;;;7.30;71.60;;;;;;5026660;28;20547;-82
2022/02/02 13:26:05;;;;;;;7.10;2.03;;;7.10;71.50;;;;;;5027185;28;20060;-83
2022/02/02 14:01:30;;;;;;;6.77;2.53;;;7.20;72.10;;;;;;5018222;28;20069;-83
2022/02/02 14:25:37;;;;;;;10.03;2.77;;;7.00;72.40;;;;;;5028219;28;20029;-83
2022/02/02 14:31:15;;;;;;;12.83;7.13;;;6.80;73.10;;;;;;5020534;28;20033;-83
2022/02/02 14:33:45;;;;;;;12.70;6.57;;;6.90;73.40;;;;;;5024645;28;20029;-83
2022/02/02 14:36:16;;;;;;;12.23;5.73;;;7.00;73.60;;;;;;5026324;28;20025;-82
2022/02/02 14:38:48;;;;;;;11.10;5.93;;;7.00;72.90;;;;;;5022176;28;20436;-82
2022/02/02 14:43:58;;;;;;;7.80;2.50;;;6.70;73.30;;;;;;5026088;28;20389;-82
2022/02/02 14:49:10;;;;;;;10.73;3.20;;;7.20;72.30;;;;;;5026855;28;20033;-83
2022/02/02 14:51:47;;;;;;;8.23;3.97;;;7.00;72.50;;;;;;5019461;28;20358;-83
2022/02/02 15:09:00;;;;;;;11.23;3.70;;;6.90;71.20;;;;;;5031411;28;20546;-83
2022/02/02 15:31:41;;;;;;;6.43;2.33;;;7.00;72.20;;;;;;5030914;28;20021;-82
2022/02/02 15:34:10;;;;;;;7.47;3.00;;;6.90;71.70;;;;;;5024457;28;20025;-83
2022/02/02 15:39:10;;;;;;;9.40;4.87;;;6.90;72.20;;;;;;5022157;28;20025;-82
2022/02/02 15:42:05;;;;;;;9.63;3.23;;;6.90;72.30;;;;;;5028632;28;20488;-82
2022/02/02 16:03:06;;;;;;;16.53;4.63;;;6.70;72.00;;;;;;5019274;28;20366;-82
2022/02/02 16:05:54;;;;;;;10.55;3.92;;;6.70;72.20;;;;;;5025350;28;20021;-82
2022/02/02 16:08:23;;;;;;;10.23;3.20;;;6.80;72.30;;;;;;5027047;28;20025;-81
2022/02/02 16:16:02;;;;;;;6.20;1.70;;;6.60;72.70;;;;;;5030741;28;20025;-82
2022/02/02 16:32:17;;;;;;;12.87;3.00;;;7.10;71.50;;;;;;5031907;28;20033;-82
2022/02/02 16:35:45;;;;;;;10.93;4.67;;;7.20;72.30;;;;;;5011608;28;20649;-82
2022/02/02 16:37:38;;;;;;;24.77;9.20;;;7.20;71.80;;;;;;5019583;28;20412;-82
2022/02/02 16:40:06;;;;;;;20.00;5.73;;;7.00;71.80;;;;;;5032285;28;20028;-82
2022/02/02 16:45:18;;;;;;;11.13;4.27;;;6.80;72.50;;;;;;5032420;28;20033;-82
2022/02/02 16:47:44;;;;;;;31.43;12.10;;;6.70;72.80;;;;;;5030004;28;20057;-82
2022/02/02 16:50:19;;;;;;;14.77;6.10;;;6.70;72.80;;;;;;5030511;28;20439;-83
2022/02/02 16:52:48;;;;;;;12.77;4.90;;;6.70;72.80;;;;;;5022266;28;20082;-82
2022/02/02 16:55:28;;;;;;;14.20;5.43;;;6.70;72.80;;;;;;5029998;28;20021;-82
2022/02/02 16:58:05;;;;;;;9.53;2.90;;;6.60;72.90;;;;;;5012602;28;20033;-82
2022/02/02 17:31:04;;;;;;;21.37;11.37;;;6.40;74.20;;;;;;5031088;28;20477;-81
2022/02/02 17:33:38;;;;;;;22.63;11.57;;;6.40;74.60;;;;;;5028393;28;20041;-81
2022/02/02 17:36:26;;;;;;;17.83;9.40;;;6.40;74.40;;;;;;5019892;28;20057;-81
2022/02/02 17:39:09;;;;;;;;;;;;;;;;;;;;;
2022/02/02 17:42:05;;;;;;;10.70;5.20;;;6.40;75.00;;;;;;5019964;28;20468;-81
2022/02/02 18:19:30;;;;;;;15.70;8.37;;;6.10;75.60;;;;;;5031794;28;20026;-83
2022/02/02 18:21:56;;;;;;;17.10;7.43;;;5.90;75.30;;;;;;5032525;28;20068;-83
2022/02/02 18:29:59;;;;;;;14.37;8.50;;;5.90;75.80;;;;;;5044436;28;20032;-84
2022/02/02 18:32:44;;;;;;;12.87;9.23;;;6.00;76.20;;;;;;5032934;28;20021;-84
2022/02/02 18:35:15;;;;;;;13.10;8.57;;;6.00;75.80;;;;;;5034343;28;20021;-83
2022/02/02 18:48:55;;;;;;;14.00;7.97;;;6.00;75.80;;;;;;5034154;28;20132;-83
2022/02/02 18:51:35;;;;;;;11.63;7.60;;;6.00;75.80;;;;;;5036268;28;20048;-83
2022/02/02 18:59:43;;;;;;;13.13;7.97;;;6.10;75.20;;;;;;5035480;28;20025;-82
2022/02/02 19:40:12;;;;;;;13.63;8.67;;;5.70;76.00;;;;;;5034412;28;20473;-82
2022/02/02 20:12:15;;;;;;;7.97;5.67;;;5.90;75.40;;;;;;5029154;28;20029;-82
2022/02/02 20:14:41;;;;;;;10.53;6.20;;;5.90;75.50;;;;;;5026694;28;20101;-82
2022/02/02 20:17:15;;;;;;;8.73;5.40;;;5.90;75.40;;;;;;5032483;28;20110;-83
2022/02/02 20:19:44;;;;;;;10.83;6.40;;;5.80;75.30;;;;;;5032652;28;20021;-83
2022/02/02 20:22:10;;;;;;;8.07;5.43;;;5.90;75.50;;;;;;5032661;28;20030;-82
2022/02/02 20:24:49;;;;;;;8.17;4.97;;;5.90;75.60;;;;;;5029156;28;20719;-81
2022/02/02 20:27:15;;;;;;;10.67;6.43;;;6.10;75.70;;;;;;5032499;28;20117;-82
2022/02/02 20:29:41;;;;;;;9.97;5.37;;;6.20;74.90;;;;;;5028180;28;20784;-82
2022/02/02 20:32:07;;;;;;;7.70;4.67;;;6.20;74.80;;;;;;5030427;28;20083;-82
2022/02/02 20:34:33;;;;;;;5.97;3.60;;;6.20;75.00;;;;;;5023882;28;20526;-83
2022/02/02 20:36:59;;;;;;;6.57;3.87;;;6.20;75.20;;;;;;5031448;28;20029;-82
2022/02/02 20:41:58;;;;;;;7.57;5.07;;;6.50;74.40;;;;;;5033808;28;20017;-83
2022/02/02 20:44:41;;;;;;;8.33;5.80;;;6.40;73.80;;;;;;5031914;28;20479;-83
2022/02/02 21:04:03;;;;;;;11.40;6.57;;;5.80;75.10;;;;;;5032227;28;20026;-82
2022/02/02 21:06:39;;;;;;;9.10;5.67;;;5.80;75.10;;;;;;5030542;28;20132;-82
2022/02/02 21:09:18;;;;;;;6.70;4.73;;;5.80;75.50;;;;;;5031882;28;20024;-82
2022/02/02 21:14:14;;;;;;;6.97;5.40;;;5.80;75.80;;;;;;5033197;28;20108;-81
2022/02/02 21:16:43;;;;;;;9.20;5.70;;;5.90;75.50;;;;;;5031802;28;20033;-82
2022/02/02 21:19:13;;;;;;;11.47;6.20;;;5.90;75.20;;;;;;5031222;28;20094;-82
2022/02/02 21:21:49;;;;;;;10.27;6.47;;;5.90;75.40;;;;;;5032375;28;20025;-82
2022/02/02 21:27:15;;;;;;;7.47;5.67;;;5.90;75.00;;;;;;5032694;28;20496;-82
2022/02/02 21:29:37;;;;;;;11.27;6.63;;;6.00;76.10;;;;;;5017659;28;20424;-82
2022/02/02 21:32:04;;;;;;;9.73;6.13;;;6.20;74.90;;;;;;5026182;28;20041;-82
2022/02/02 21:34:30;;;;;;;9.50;6.00;;;6.10;74.60;;;;;;5031498;28;20124;-82
2022/02/02 21:37:00;;;;;;;7.33;5.60;;;6.00;75.10;;;;;;5025963;28;20549;-81
2022/02/02 21:39:28;;;;;;;8.13;5.73;;;6.00;75.40;;;;;;5032419;28;20017;-82
2022/02/02 21:41:54;;;;;;;7.57;5.13;;;6.20;75.60;;;;;;5027306;28;20025;-82
2022/02/02 21:44:21;;;;;;;10.73;5.17;;;6.30;74.60;;;;;;5032431;28;20040;-82
2022/02/02 21:46:47;;;;;;;7.33;4.80;;;6.10;75.00;;;;;;5030862;28;20049;-82
2022/02/02 21:49:19;;;;;;;9.23;4.63;;;6.10;75.00;;;;;;5028407;28;20029;-82
2022/02/02 21:52:00;;;;;;;9.57;5.47;;;6.10;74.90;;;;;;5031739;28;20018;-82
2022/02/02 21:54:28;;;;;;;7.43;4.97;;;6.10;74.90;;;;;;5024100;28;20488;-82
2022/02/02 21:56:54;;;;;;;9.70;4.87;;;6.20;74.90;;;;;;5030106;28;20025;-82
2022/02/02 21:59:20;;;;;;;7.97;4.43;;;6.10;75.50;;;;;;5035065;28;20125;-82
2022/02/02 22:01:46;;;;;;;11.27;5.13;;;6.10;75.10;;;;;;5028887;28;20057;-82
2022/02/02 22:04:11;;;;;;;9.67;5.27;;;6.10;74.90;;;;;;5036171;28;20075;-82
2022/02/02 22:06:37;;;;;;;6.50;4.30;;;6.10;74.80;;;;;;5034772;28;20025;-82
2022/02/02 22:09:03;;;;;;;7.10;4.97;;;6.10;75.00;;;;;;5034265;28;20022;-82
2022/02/02 22:11:30;;;;;;;9.23;4.43;;;6.10;75.20;;;;;;5028115;28;20026;-82
2022/02/02 22:14:11;;;;;;;7.27;4.87;;;6.10;75.10;;;;;;5035903;28;20024;-81
2022/02/02 22:16:39;;;;;;;8.80;4.73;;;6.10;74.90;;;;;;5021730;28;20408;-81
2022/02/02 22:19:05;;;;;;;7.93;5.03;;;6.00;74.90;;;;;;5026024;28;20084;-81
2022/02/02 22:21:31;;;;;;;6.57;4.57;;;5.90;75.00;;;;;;5034795;28;20021;-82
2022/02/02 22:23:57;;;;;;;9.83;6.27;;;6.00;75.50;;;;;;5034384;28;20099;-82
2022/02/02 22:26:23;;;;;;;8.53;4.80;;;6.00;75.40;;;;;;5034632;28;20025;-82
2022/02/02 22:28:48;;;;;;;9.90;5.13;;;6.00;75.40;;;;;;5034501;28;20514;-81
2022/02/02 22:31:14;;;;;;;10.43;5.53;;;6.00;75.40;;;;;;5032810;28;20021;-81
2022/02/02 22:33:41;;;;;;;8.43;5.73;;;6.00;75.40;;;;;;5028192;28;20026;-81
2022/02/02 22:36:07;;;;;;;9.20;5.60;;;6.00;75.40;;;;;;5032068;28;20030;-82
2022/02/02 22:38:32;;;;;;;8.27;5.60;;;6.00;75.50;;;;;;5016947;28;20030;-83
2022/02/02 22:40:59;;;;;;;8.20;6.43;;;6.00;75.50;;;;;;5035065;28;20534;-82
2022/02/02 22:43:28;;;;;;;14.20;6.57;;;6.00;75.40;;;;;;5034509;28;20026;-82
2022/02/02 22:45:54;;;;;;;10.57;6.40;;;6.00;75.40;;;;;;5030770;28;20037;-82
2022/02/02 22:48:23;;;;;;;10.50;6.53;;;6.00;75.30;;;;;;5034137;28;20041;-82
2022/02/02 22:50:49;;;;;;;16.43;6.90;;;6.00;75.60;;;;;;5034190;28;20535;-82
2022/02/02 22:53:19;;;;;;;8.30;6.03;;;6.00;75.40;;;;;;5034152;28;20030;-82
2022/02/02 22:55:45;;;;;;;13.67;6.70;;;6.00;75.50;;;;;;5027954;28;20022;-82
2022/02/02 22:58:10;;;;;;;9.13;6.90;;;6.00;75.40;;;;;;5046918;28;20036;-82
2022/02/02 23:00:39;;;;;;;12.43;7.03;;;6.00;75.60;;;;;;5025334;28;20024;-82
2022/02/02 23:03:11;;;;;;;13.80;7.07;;;6.00;75.60;;;;;;5033700;28;20025;-82
2022/02/02 23:05:40;;;;;;;10.57;6.93;;;6.00;75.70;;;;;;5043635;28;20029;-82
2022/02/02 23:08:09;;;;;;;9.07;6.80;;;6.00;75.70;;;;;;5030897;28;20373;-82
2022/02/02 23:10:37;;;;;;;8.30;6.03;;;6.00;75.70;;;;;;5030391;28;20013;-82
2022/02/02 23:13:03;;;;;;;10.20;6.93;;;6.00;75.70;;;;;;5033348;28;20523;-82
2022/02/02 23:16:19;;;;;;;10.87;6.93;;;5.90;75.80;;;;;;5034734;28;20018;-82
2022/02/02 23:18:21;;;;;;;16.57;7.83;;;5.90;75.90;;;;;;5017653;28;20045;-82
2022/02/02 23:20:52;;;;;;;12.87;7.63;;;5.90;75.80;;;;;;5017526;28;20464;-82
2022/02/02 23:23:20;;;;;;;13.93;7.20;;;5.90;75.80;;;;;;5033904;28;20476;-82
2022/02/02 23:25:48;;;;;;;14.03;7.77;;;5.90;75.70;;;;;;5033911;28;20026;-82
2022/02/02 23:28:19;;;;;;;11.73;7.47;;;5.90;75.70;;;;;;5033991;28;20440;-82
2022/02/02 23:30:46;;;;;;;15.87;8.57;;;5.90;75.60;;;;;;5033637;28;20068;-80
2022/02/02 23:33:13;;;;;;;13.23;8.17;;;5.90;75.50;;;;;;5035394;28;20826;-81
2022/02/02 23:35:40;;;;;;;12.60;8.20;;;5.90;75.60;;;;;;5024271;28;20049;-82
2022/02/02 23:38:07;;;;;;;13.33;8.10;;;5.90;75.70;;;;;;5031526;28;20480;-82
2022/02/02 23:40:58;;;;;;;16.77;9.10;;;5.90;75.60;;;;;;5033421;28;20025;-82
2022/02/02 23:43:22;;;;;;;13.27;9.03;;;5.90;75.80;;;;;;5029119;28;20034;-82
2022/02/02 23:45:55;;;;;;;14.97;9.03;;;5.90;75.80;;;;;;5034054;28;20025;-81
2022/02/02 23:48:23;;;;;;;12.20;8.53;;;6.00;76.00;;;;;;5026033;28;20045;-82
2022/02/02 23:50:52;;;;;;;12.53;7.80;;;6.00;75.60;;;;;;5032595;28;20022;-81
2022/02/02 23:53:21;;;;;;;10.13;6.77;;;6.00;75.50;;;;;;5032752;28;20091;-82
2022/02/02 23:55:56;;;;;;;13.90;7.70;;;5.90;75.80;;;;;;5012954;28;20026;-81
2022/02/02 23:58:35;;;;;;;15.20;8.30;;;5.90;75.70;;;;;;5028041;28;20052;-82
